createdAt,value
2023-01-04T00:00:18.995Z,96510.38
2023-01-04T00:02:45.787Z,96505.34
2023-01-04T00:05:12.565Z,96501.84
2023-01-04T00:07:39.196Z,96498.50
2023-01-04T00:10:06.096Z,96503.34
2023-01-04T00:12:34.817Z,96502.75
2023-01-04T00:15:01.438Z,96494.63
2023-01-04T00:17:28.024Z,96494.06
2023-01-04T00:19:54.628Z,96496.66
2023-01-04T00:22:21.297Z,96494.09
2023-01-04T00:24:47.915Z,96494.44
2023-01-04T00:27:14.537Z,96494.28
2023-01-04T00:29:41.135Z,96485.41
2023-01-04T00:32:07.837Z,96484.44
2023-01-04T00:34:34.436Z,96487.16
2023-01-04T00:37:01.037Z,96490.22
2023-01-04T00:39:27.719Z,96479.41
2023-01-04T00:41:59.822Z,96490.75
2023-01-04T00:44:28.392Z,96495.03
2023-01-04T00:46:57.615Z,96492.41
2023-01-04T00:49:25.236Z,96495.53
2023-01-04T00:51:52.033Z,96498.69
2023-01-04T00:54:19.119Z,96501.72
2023-01-04T00:56:45.751Z,96497.44
2023-01-04T00:59:15.082Z,96499.25
2023-01-04T01:01:42.975Z,96493.16
2023-01-04T01:04:13.458Z,96488.22
2023-01-04T01:06:40.569Z,96489.25
2023-01-04T01:09:08.200Z,96487.84
2023-01-04T01:11:35.011Z,96485.97
2023-01-04T01:14:01.625Z,96486.00
2023-01-04T01:16:53.921Z,96486.53
2023-01-04T01:19:16.715Z,96478.63
2023-01-04T01:21:43.387Z,96474.50
2023-01-04T01:24:18.702Z,96477.91
2023-01-04T01:26:45.732Z,96476.41
2023-01-04T01:29:12.526Z,96480.16
2023-01-04T01:31:41.169Z,96483.41
2023-01-04T01:34:08.243Z,96486.03
2023-01-04T01:36:36.536Z,96488.31
2023-01-04T01:39:03.306Z,96484.66
2023-01-04T01:41:35.382Z,96490.31
2023-01-04T01:44:06.647Z,96489.84
2023-01-04T01:46:50.460Z,96495.50
2023-01-04T01:49:32.309Z,96501.50
2023-01-04T01:52:03.840Z,96500.97
2023-01-04T01:54:36.965Z,96505.97
2023-01-04T01:57:07.332Z,96501.25
2023-01-04T01:59:40.458Z,96512.53
2023-01-04T02:02:08.490Z,96514.53
2023-01-04T02:04:41.504Z,96521.72
2023-01-04T02:07:11.999Z,96525.19
2023-01-04T02:09:40.672Z,96526.66
2023-01-04T02:12:11.775Z,96520.91
2023-01-04T02:14:40.621Z,96517.78
2023-01-04T02:17:16.180Z,96524.09
2023-01-04T02:20:04.200Z,96528.19
2023-01-04T02:22:33.510Z,96528.34
2023-01-04T02:25:54.224Z,96521.94
2023-01-04T02:28:39.021Z,96524.09
2023-01-04T02:31:24.643Z,96521.94
2023-01-04T02:34:13.164Z,96518.53
2023-01-04T02:36:51.975Z,96521.63
2023-01-04T02:39:48.835Z,96524.94
2023-01-04T02:42:27.405Z,96530.00
2023-01-04T02:45:04.754Z,96514.00
2023-01-04T02:47:36.681Z,96510.00
2023-01-04T02:50:17.411Z,96509.41
2023-01-04T02:52:44.151Z,96506.13
2023-01-04T02:55:11.010Z,96502.75
2023-01-04T02:58:00.357Z,96508.94
2023-01-04T03:00:54.545Z,96503.19
2023-01-04T03:03:34.170Z,96506.91
2023-01-04T03:06:16.321Z,96498.88
2023-01-04T03:08:54.988Z,96502.91
2023-01-04T03:11:21.863Z,96515.63
2023-01-04T03:13:48.917Z,96514.72
2023-01-04T03:16:23.096Z,96523.34
2023-01-04T03:18:56.194Z,96514.66
2023-01-04T03:21:27.043Z,96514.63
2023-01-04T03:24:00.484Z,96510.94
2023-01-04T03:26:34.022Z,96511.47
2023-01-04T03:29:16.005Z,96503.91
2023-01-04T03:32:06.696Z,96508.34
2023-01-04T03:34:33.876Z,96518.47
2023-01-04T03:37:15.748Z,96507.44
2023-01-04T03:40:01.182Z,96513.97
2023-01-04T03:42:42.273Z,96515.31
2023-01-04T03:45:17.948Z,96504.16
2023-01-04T03:48:23.122Z,96499.69
2023-01-04T03:50:58.635Z,96497.06
2023-01-04T03:53:27.397Z,96496.97
2023-01-04T03:55:58.305Z,96496.38
2023-01-04T03:58:25.846Z,96496.16
2023-01-04T04:00:52.729Z,96485.41
2023-01-04T04:03:19.389Z,96489.78
2023-01-04T04:05:48.084Z,96490.44
2023-01-04T04:08:14.719Z,96482.69
2023-01-04T04:10:41.348Z,96475.59
2023-01-04T04:13:07.974Z,96481.34
2023-01-04T04:15:35.639Z,96471.91
2023-01-04T04:18:02.281Z,96478.81
2023-01-04T04:20:28.935Z,96473.00
2023-01-04T04:22:55.542Z,96467.97
2023-01-04T04:25:22.150Z,96462.53
2023-01-04T04:27:48.885Z,96465.56
2023-01-04T04:30:15.580Z,96471.34
2023-01-04T04:32:42.704Z,96466.44
2023-01-04T04:35:10.039Z,96468.44
2023-01-04T04:37:36.653Z,96472.16
2023-01-04T04:40:05.000Z,96475.00
2023-01-04T04:42:31.664Z,96477.63
2023-01-04T04:44:58.291Z,96475.97
2023-01-04T04:47:24.946Z,96473.41
2023-01-04T04:49:51.832Z,96477.38
2023-01-04T04:52:18.438Z,96479.31
2023-01-04T04:54:45.067Z,96483.53
2023-01-04T04:57:11.656Z,96482.13
2023-01-04T04:59:38.243Z,96492.34
2023-01-04T05:02:05.005Z,96492.25
2023-01-04T05:04:31.748Z,96479.25
2023-01-04T05:06:58.384Z,96483.34
2023-01-04T05:09:25.058Z,96493.09
2023-01-04T05:11:51.737Z,96496.78
2023-01-04T05:14:18.423Z,96497.72
2023-01-04T05:16:45.172Z,96489.78
2023-01-04T05:19:11.852Z,96496.06
2023-01-04T05:21:38.518Z,96497.69
2023-01-04T05:24:05.361Z,96498.88
2023-01-04T05:26:32.171Z,96493.03
2023-01-04T05:28:58.862Z,96508.53
2023-01-04T05:31:26.137Z,96504.16
2023-01-04T05:33:52.755Z,96503.81
2023-01-04T05:36:19.360Z,96503.81
2023-01-04T05:38:46.060Z,96514.97
2023-01-04T05:41:12.649Z,96512.63
2023-01-04T05:43:39.298Z,96506.94
2023-01-04T05:46:05.988Z,96515.75
2023-01-04T05:48:32.606Z,96510.97
2023-01-04T05:50:59.204Z,96508.13
2023-01-04T05:53:25.816Z,96510.28
2023-01-04T05:55:52.647Z,96508.25
2023-01-04T05:58:19.342Z,96521.22
2023-01-04T06:00:45.954Z,96519.59
2023-01-04T06:03:12.708Z,96527.63
2023-01-04T06:05:39.442Z,96528.78
2023-01-04T06:08:06.394Z,96518.13
2023-01-04T06:10:33.312Z,96518.59
2023-01-04T06:12:59.943Z,96520.28
2023-01-04T06:15:26.599Z,96512.03
2023-01-04T06:17:53.211Z,96511.88
2023-01-04T06:20:19.888Z,96511.63
2023-01-04T06:22:46.576Z,96512.53
2023-01-04T06:25:13.212Z,96507.50
2023-01-04T06:27:39.847Z,96503.63
2023-01-04T06:30:07.018Z,96513.16
2023-01-04T06:32:33.850Z,96508.88
2023-01-04T06:35:00.496Z,96504.25
2023-01-04T06:37:27.709Z,96512.59
2023-01-04T06:39:54.381Z,96518.44
2023-01-04T06:42:21.026Z,96524.16
2023-01-04T06:44:47.681Z,96520.72
2023-01-04T06:47:14.319Z,96525.28
2023-01-04T06:49:40.951Z,96518.31
2023-01-04T06:52:07.643Z,96514.84
2023-01-04T06:54:34.299Z,96524.16
2023-01-04T06:57:00.888Z,96519.94
2023-01-04T06:59:27.491Z,96526.31
2023-01-04T07:01:54.353Z,96538.47
2023-01-04T07:04:21.269Z,96539.75
2023-01-04T07:06:47.939Z,96548.47
2023-01-04T07:09:14.616Z,96545.72
2023-01-04T07:11:41.258Z,96545.72
2023-01-04T07:14:07.890Z,96556.31
2023-01-04T07:16:34.534Z,96551.22
2023-01-04T07:19:01.351Z,96557.06
2023-01-04T07:21:28.654Z,96559.63
2023-01-04T07:23:56.581Z,96562.78
2023-01-04T07:26:23.411Z,96565.66
2023-01-04T07:28:50.295Z,96566.88
2023-01-04T07:31:16.957Z,96565.66
2023-01-04T07:33:44.150Z,96563.31
2023-01-04T07:36:10.936Z,96573.53
2023-01-04T07:38:37.688Z,96571.59
2023-01-04T07:41:04.443Z,96571.53
2023-01-04T07:43:31.181Z,96579.47
2023-01-04T07:45:58.032Z,96574.91
2023-01-04T07:48:24.804Z,96570.41
2023-01-04T07:50:51.482Z,96576.69
2023-01-04T07:53:18.147Z,96568.88
2023-01-04T07:55:45.069Z,96576.19
2023-01-04T07:58:12.512Z,96579.88
2023-01-04T08:00:39.293Z,96579.72
2023-01-04T08:03:05.997Z,96579.72
2023-01-04T08:05:34.599Z,96581.06
2023-01-04T08:08:01.688Z,96584.19
2023-01-04T08:10:28.395Z,96587.81
2023-01-04T08:12:58.131Z,96579.72
2023-01-04T08:15:24.784Z,96581.16
2023-01-04T08:17:51.449Z,96579.25
2023-01-04T08:20:18.739Z,96575.59
2023-01-04T08:22:45.383Z,96571.34
2023-01-04T08:25:12.039Z,96571.13
2023-01-04T08:27:38.667Z,96562.22
2023-01-04T08:30:05.787Z,96566.81
2023-01-04T08:32:32.438Z,96580.25
2023-01-04T08:34:59.266Z,96580.81
2023-01-04T08:37:25.901Z,96581.00
2023-01-04T08:39:52.563Z,96587.53
2023-01-04T08:42:25.171Z,96600.00
2023-01-04T08:44:59.937Z,96595.13
2023-01-04T08:47:28.251Z,96601.41
2023-01-04T08:49:55.933Z,96594.75
2023-01-04T08:52:23.059Z,96610.66
2023-01-04T08:54:50.105Z,96603.63
2023-01-04T08:57:19.937Z,96606.69
2023-01-04T08:59:46.721Z,96597.09
2023-01-04T09:02:23.271Z,96593.91
2023-01-04T09:04:50.828Z,96584.53
2023-01-04T09:07:18.145Z,96581.00
2023-01-04T09:09:44.828Z,96583.41
2023-01-04T09:12:11.491Z,96591.38
2023-01-04T09:14:41.000Z,96590.69
2023-01-04T09:17:07.672Z,96582.97
2023-01-04T09:19:34.614Z,96593.22
2023-01-04T09:22:01.746Z,96583.94
2023-01-04T09:24:28.456Z,96583.59
2023-01-04T09:26:55.177Z,96588.03
2023-01-04T09:29:21.910Z,96586.41
2023-01-04T09:31:48.640Z,96589.88
2023-01-04T09:34:17.476Z,96588.00
2023-01-04T09:36:46.348Z,96590.53
2023-01-04T09:39:21.835Z,96591.00
2023-01-04T09:42:01.676Z,96588.00
2023-01-04T09:47:51.991Z,96589.97
2023-01-04T09:50:36.520Z,96597.47
2023-01-04T09:53:12.176Z,96606.84
2023-01-04T09:55:44.325Z,96613.91
2023-01-04T09:58:23.578Z,96611.63
2023-01-04T10:01:19.511Z,96607.78
2023-01-04T10:04:05.995Z,96611.28
2023-01-04T10:06:34.605Z,96610.78
2023-01-04T10:09:06.355Z,96616.56
2023-01-04T10:11:54.913Z,96596.34
2023-01-04T10:15:00.723Z,96592.91
2023-01-04T10:19:50.509Z,96587.84
2023-01-04T10:24:02.811Z,96577.72
2023-01-04T10:26:40.252Z,96574.63
2023-01-04T10:29:13.052Z,96578.09
2023-01-04T10:32:15.174Z,96571.22
2023-01-04T10:34:44.757Z,96565.75
2023-01-04T10:37:25.013Z,96565.69
2023-01-04T10:39:54.134Z,96561.09
2023-01-04T10:42:20.765Z,96550.06
2023-01-04T10:45:09.352Z,96551.19
2023-01-04T10:47:53.165Z,96545.84
2023-01-04T10:50:25.082Z,96544.78
2023-01-04T10:53:02.653Z,96547.69
2023-01-04T10:56:26.094Z,96543.00
2023-01-04T10:58:55.334Z,96550.25
2023-01-04T11:01:47.061Z,96557.13
2023-01-04T11:04:29.507Z,96547.88
2023-01-04T11:07:07.511Z,96540.41
2023-01-04T11:09:46.512Z,96536.84
2023-01-04T11:12:17.925Z,96542.13
2023-01-04T11:14:44.902Z,96546.56
2023-01-04T11:17:13.029Z,96540.59
2023-01-04T11:19:41.173Z,96544.09
2023-01-04T11:22:24.195Z,96543.09
2023-01-04T11:28:08.004Z,96527.63
2023-01-04T11:31:02.018Z,96524.63
2023-01-04T11:33:28.792Z,96530.19
2023-01-04T11:35:57.878Z,96529.41
2023-01-04T11:38:30.632Z,96521.97
2023-01-04T11:40:57.882Z,96521.31
2023-01-04T11:43:26.665Z,96528.59
2023-01-04T11:46:05.530Z,96517.13
2023-01-04T11:48:36.582Z,96515.81
2023-01-04T11:51:04.752Z,96514.56
2023-01-04T11:53:37.086Z,96514.63
2023-01-04T11:56:13.172Z,96499.00
2023-01-04T11:58:41.777Z,96495.88
2023-01-04T12:01:29.124Z,96484.13
2023-01-04T12:03:56.076Z,96483.91
2023-01-04T12:06:38.472Z,96489.47
2023-01-04T12:09:05.805Z,96487.03
2023-01-04T12:11:36.601Z,96488.63
2023-01-04T12:14:04.198Z,96483.94
2023-01-04T12:16:57.597Z,96479.81
2023-01-04T12:19:26.138Z,96489.19
2023-01-04T12:21:57.093Z,96492.97
2023-01-04T12:24:30.877Z,96486.59
2023-01-04T12:26:58.608Z,96483.59
2023-01-04T12:29:25.249Z,96480.94
2023-01-04T12:31:52.773Z,96483.25
2023-01-04T12:34:22.059Z,96472.88
2023-01-04T12:36:51.363Z,96477.19
2023-01-04T12:39:20.821Z,96470.94
2023-01-04T12:41:47.446Z,96478.47
2023-01-04T12:44:38.847Z,96471.19
2023-01-04T12:47:17.711Z,96459.78
2023-01-04T12:49:59.210Z,96467.94
2023-01-04T12:52:48.024Z,96471.22
2023-01-04T12:55:27.396Z,96477.00
2023-01-04T12:57:54.184Z,96482.63
2023-01-04T13:00:20.825Z,96482.09
2023-01-04T13:03:16.337Z,96480.97
2023-01-04T13:06:02.418Z,96482.38
2023-01-04T13:08:30.343Z,96480.47
2023-01-04T13:11:04.025Z,96478.19
2023-01-04T13:13:49.179Z,96469.50
2023-01-04T13:16:50.777Z,96459.78
2023-01-04T13:19:26.372Z,96455.94
2023-01-04T13:21:57.016Z,96453.75
2023-01-04T13:24:33.289Z,96449.41
2023-01-04T13:27:18.195Z,96440.50
2023-01-04T13:29:46.488Z,96439.59
2023-01-04T13:32:21.411Z,96432.25
2023-01-04T13:34:57.119Z,96436.34
2023-01-04T13:37:26.980Z,96425.53
2023-01-04T13:40:21.677Z,96425.69
2023-01-04T13:42:57.745Z,96417.94
2023-01-04T13:45:49.229Z,96418.13
2023-01-04T13:48:20.626Z,96411.53
2023-01-04T13:51:03.875Z,96421.16
2023-01-04T13:53:32.570Z,96422.03
2023-01-04T13:56:01.778Z,96411.03
2023-01-04T13:58:34.433Z,96416.53
2023-01-04T14:01:06.818Z,96421.38
2023-01-04T14:03:56.706Z,96420.84
2023-01-04T14:06:39.847Z,96419.47
2023-01-04T14:09:14.815Z,96426.31
2023-01-04T14:12:08.515Z,96434.56
2023-01-04T14:14:38.258Z,96426.22
2023-01-04T14:17:14.789Z,96422.47
2023-01-04T14:19:59.444Z,96426.78
2023-01-04T14:22:28.093Z,96423.53
2023-01-04T14:25:08.925Z,96420.16
2023-01-04T14:27:42.837Z,96431.50
2023-01-04T14:30:24.166Z,96425.69
2023-01-04T14:33:14.053Z,96429.13
2023-01-04T14:35:46.457Z,96432.03
2023-01-04T14:38:22.145Z,96437.91
2023-01-04T14:40:48.832Z,96441.56
2023-01-04T14:43:35.012Z,96440.63
2023-01-04T14:46:04.486Z,96444.56
2023-01-04T14:48:31.346Z,96441.16
2023-01-04T14:51:00.557Z,96443.75
2023-01-04T14:53:28.025Z,96446.13
2023-01-04T14:55:55.211Z,96439.41
2023-01-04T14:58:22.104Z,96439.72
2023-01-04T15:00:48.927Z,96445.19
2023-01-04T15:03:15.861Z,96449.28
2023-01-04T15:05:47.110Z,96451.34
2023-01-04T15:08:13.757Z,96450.84
2023-01-04T15:10:40.471Z,96453.91
2023-01-04T15:13:07.145Z,96456.34
2023-01-04T15:15:33.888Z,96453.06
2023-01-04T15:18:00.588Z,96453.84
2023-01-04T15:20:27.263Z,96436.22
2023-01-04T15:22:54.090Z,96435.09
2023-01-04T15:25:20.936Z,96434.00
2023-01-04T15:27:47.645Z,96433.09
2023-01-04T15:30:14.871Z,96430.69
2023-01-04T15:32:42.008Z,96432.16
2023-01-04T15:35:09.125Z,96433.78
2023-01-04T15:37:35.818Z,96439.97
2023-01-04T15:40:04.061Z,96436.47
2023-01-04T15:42:31.091Z,96434.13
2023-01-04T15:44:57.869Z,96446.44
2023-01-04T15:47:24.552Z,96445.91
2023-01-04T15:49:51.161Z,96442.88
2023-01-04T15:52:17.752Z,96442.16
2023-01-04T15:54:44.373Z,96445.13
2023-01-04T15:57:11.078Z,96449.28
2023-01-04T15:59:37.789Z,96441.06
2023-01-04T16:02:04.448Z,96436.41
2023-01-04T16:04:31.330Z,96446.13
2023-01-04T16:06:58.572Z,96448.53
2023-01-04T16:09:25.307Z,96443.16
2023-01-04T16:11:51.963Z,96440.31
2023-01-04T16:14:18.587Z,96440.47
2023-01-04T16:16:45.260Z,96447.44
2023-01-04T16:19:11.986Z,96446.94
2023-01-04T16:21:38.614Z,96433.13
2023-01-04T16:24:22.159Z,96445.34
2023-01-04T16:26:52.189Z,96451.00
2023-01-04T16:29:18.806Z,96447.97
2023-01-04T16:31:45.567Z,96452.09
2023-01-04T16:34:13.619Z,96457.72
2023-01-04T16:36:40.334Z,96449.44
2023-01-04T16:39:07.783Z,96453.84
2023-01-04T16:41:34.738Z,96441.03
2023-01-04T16:44:05.187Z,96447.56
2023-01-04T16:46:34.157Z,96443.47
2023-01-04T16:49:03.913Z,96446.25
2023-01-04T16:51:33.813Z,96450.06
2023-01-04T16:54:07.127Z,96446.59
2023-01-04T16:56:34.707Z,96448.09
2023-01-04T16:59:02.094Z,96462.53
2023-01-04T17:01:34.492Z,96461.91
2023-01-04T17:04:04.382Z,96454.44
2023-01-04T17:06:34.619Z,96462.94
2023-01-04T17:09:01.611Z,96459.72
2023-01-04T17:14:17.281Z,96459.25
2023-01-04T17:16:43.915Z,96461.19
2023-01-04T17:19:10.604Z,96456.94
2023-01-04T17:21:37.434Z,96460.16
2023-01-04T17:24:04.170Z,96456.28
2023-01-04T17:26:32.622Z,96455.69
2023-01-04T17:29:01.440Z,96450.47
2023-01-04T17:31:33.651Z,96457.38
2023-01-04T17:34:00.738Z,96456.31
2023-01-04T17:36:27.681Z,96460.28
2023-01-04T17:38:54.637Z,96464.03
2023-01-04T17:41:24.437Z,96466.38
2023-01-04T17:43:55.472Z,96467.16
2023-01-04T17:46:23.777Z,96467.97
2023-01-04T17:49:17.810Z,96466.16
2023-01-04T17:51:39.434Z,96459.13
2023-01-04T17:54:07.056Z,96461.94
2023-01-04T17:56:34.093Z,96466.53
2023-01-04T17:59:02.904Z,96464.03
2023-01-04T18:01:30.696Z,96459.47
2023-01-04T18:03:59.096Z,96461.53
2023-01-04T18:06:29.610Z,96458.16
2023-01-04T18:08:57.431Z,96462.09
2023-01-04T18:11:25.256Z,96459.19
2023-01-04T18:13:52.716Z,96453.56
2023-01-04T18:16:25.595Z,96450.75
2023-01-04T18:18:54.966Z,96458.31
2023-01-04T18:21:28.302Z,96461.06
2023-01-04T18:29:32.957Z,96460.09
2023-01-04T18:31:59.723Z,96461.88
2023-01-04T18:34:26.643Z,96448.69
2023-01-04T18:36:53.834Z,96450.75
2023-01-04T18:39:20.536Z,96444.59
2023-01-04T18:41:47.235Z,96436.03
2023-01-04T18:44:32.064Z,96442.38
2023-01-04T18:46:59.816Z,96437.75
2023-01-04T18:49:26.510Z,96433.78
2023-01-04T18:51:53.144Z,96433.38
2023-01-04T18:54:19.825Z,96437.63
2023-01-04T18:56:47.240Z,96440.41
2023-01-04T18:59:14.680Z,96440.88
2023-01-04T19:01:41.397Z,96433.69
2023-01-04T19:04:08.184Z,96439.06
2023-01-04T19:06:34.785Z,96448.53
2023-01-04T19:09:06.281Z,96464.69
2023-01-04T19:11:33.562Z,96452.09
2023-01-04T19:14:03.383Z,96447.78
2023-01-04T19:16:30.129Z,96445.00
2023-01-04T19:19:00.742Z,96453.59
2023-01-04T19:21:28.016Z,96455.84
2023-01-04T19:23:54.956Z,96454.00
2023-01-04T19:26:23.139Z,96452.72
2023-01-04T19:28:50.602Z,96450.91
2023-01-04T19:31:19.966Z,96446.84
2023-01-04T19:33:47.078Z,96449.66
2023-01-04T19:36:16.409Z,96443.19
2023-01-04T19:38:43.039Z,96446.75
2023-01-04T19:41:18.675Z,96436.66
2023-01-04T19:43:45.453Z,96443.97
2023-01-04T19:46:12.809Z,96431.66
2023-01-04T19:48:40.061Z,96440.66
2023-01-04T19:51:16.946Z,96438.91
2023-01-04T19:53:44.395Z,96442.06
2023-01-04T19:56:12.928Z,96445.94
2023-01-04T19:58:40.736Z,96437.25
2023-01-04T20:01:12.298Z,96441.25
2023-01-04T20:03:39.197Z,96434.53
2023-01-04T20:06:08.247Z,96430.13
2023-01-04T20:08:34.945Z,96435.81
2023-01-04T20:11:02.409Z,96442.50
2023-01-04T20:13:30.700Z,96446.28
2023-01-04T20:15:59.588Z,96437.00
2023-01-04T20:18:27.131Z,96440.63
2023-01-04T20:20:53.789Z,96441.06
2023-01-04T20:23:21.714Z,96441.25
2023-01-04T20:25:51.778Z,96437.91
2023-01-04T20:28:21.218Z,96436.00
2023-01-04T20:30:48.172Z,96434.88
2023-01-04T20:33:15.172Z,96432.09
2023-01-04T20:35:44.139Z,96433.69
2023-01-04T20:38:12.262Z,96437.00
2023-01-04T20:40:39.512Z,96435.66
2023-01-04T20:43:06.507Z,96428.28
2023-01-04T20:45:33.104Z,96427.97
2023-01-04T20:47:59.804Z,96419.72
2023-01-04T20:50:27.715Z,96422.56
2023-01-04T20:52:54.367Z,96430.47
2023-01-04T20:55:21.000Z,96425.28
2023-01-04T20:57:47.608Z,96426.09
2023-01-04T21:00:14.863Z,96416.41
2023-01-04T21:02:41.708Z,96403.34
2023-01-04T21:05:08.979Z,96399.88
2023-01-04T21:07:35.646Z,96392.44
2023-01-04T21:10:02.358Z,96397.88
2023-01-04T21:12:29.013Z,96401.72
2023-01-04T21:14:55.639Z,96399.72
2023-01-04T21:17:22.350Z,96391.72
2023-01-04T21:19:49.015Z,96395.13
2023-01-04T21:22:15.685Z,96402.03
2023-01-04T21:24:42.366Z,96400.84
2023-01-04T21:27:09.049Z,96398.56
2023-01-04T21:29:35.725Z,96390.84
2023-01-04T21:32:02.349Z,96389.22
2023-01-04T21:34:29.008Z,96392.97
2023-01-04T21:36:55.655Z,96377.81
2023-01-04T21:39:22.271Z,96384.78
2023-01-04T21:41:48.938Z,96372.25
2023-01-04T21:44:15.622Z,96382.03
2023-01-04T21:46:42.355Z,96378.84
2023-01-04T21:49:09.150Z,96376.97
2023-01-04T21:51:35.755Z,96378.41
2023-01-04T21:54:02.401Z,96374.88
2023-01-04T21:56:29.153Z,96371.19
2023-01-04T21:58:55.813Z,96368.09
2023-01-04T22:01:29.644Z,96363.56
2023-01-04T22:03:59.591Z,96358.19
2023-01-04T22:06:26.351Z,96352.25
2023-01-04T22:08:53.355Z,96339.81
2023-01-04T22:11:20.673Z,96351.16
2023-01-04T22:13:47.316Z,96336.66
2023-01-04T22:16:16.726Z,96342.50
2023-01-04T22:18:50.424Z,96344.81
2023-01-04T22:21:19.804Z,96340.84
2023-01-04T22:23:46.498Z,96351.97
2023-01-04T22:26:13.237Z,96350.47
2023-01-04T22:28:40.675Z,96354.44
2023-01-04T22:31:11.047Z,96353.34
2023-01-04T22:33:38.618Z,96346.50
2023-01-04T22:36:21.956Z,96344.38
2023-01-04T22:38:53.860Z,96352.53
2023-01-04T22:41:22.425Z,96347.41
2023-01-04T22:43:57.334Z,96347.53
2023-01-04T22:46:25.830Z,96340.69
2023-01-04T22:48:52.716Z,96336.34
2023-01-04T22:51:20.914Z,96345.09
2023-01-04T22:53:48.249Z,96337.91
2023-01-04T22:56:19.386Z,96344.34
2023-01-04T22:58:52.369Z,96352.72
2023-01-04T23:01:21.929Z,96339.56
2023-01-04T23:03:48.952Z,96341.50
2023-01-04T23:06:15.875Z,96347.56
2023-01-04T23:08:42.644Z,96349.97
2023-01-04T23:11:13.139Z,96353.00
2023-01-04T23:13:40.398Z,96360.19
2023-01-04T23:16:10.427Z,96354.38
2023-01-04T23:18:37.560Z,96365.91
2023-01-04T23:21:05.392Z,96358.16
2023-01-04T23:23:32.947Z,96354.50
2023-01-04T23:26:09.055Z,96354.44
2023-01-04T23:28:35.738Z,96344.63
2023-01-04T23:31:08.692Z,96345.22
2023-01-04T23:33:36.673Z,96342.25
2023-01-04T23:36:28.188Z,96346.94
2023-01-04T23:38:57.067Z,96348.78
2023-01-04T23:41:24.526Z,96338.63
2023-01-04T23:43:51.178Z,96342.59
2023-01-04T23:46:17.899Z,96348.16
2023-01-04T23:48:44.783Z,96341.22
2023-01-04T23:51:15.081Z,96349.75
2023-01-04T23:53:41.912Z,96348.47
2023-01-04T23:56:15.548Z,96355.25
2023-01-04T23:58:42.579Z,96352.63
